Weather observations for the past three days for
Cheboygan, Cheboygan County Airport
Imperial (Metric)
Date Time (edt) Wind (mph) Vis. (mi.) Weather Sky Cond. Temperature (ºF) Relative Humidity Wind Chill (°F) Heat Index (°F) Pressure Precipitation (in)
Air Dwpt 6 hour altimeter (in) sea level (mb) 1 hr 3 hr 6 hr
Max. Min.
05 19:15 E 5 10.00 Fair CLR 71.6 55.4 57% 30.06 0.0
05 18:55 E 7 10.00 Fair CLR 73.4 55.4 53% 30.06 0.0
05 18:35 E 6 10.00 Fair CLR 73.4 53.6 50% 30.06 0.0
05 18:16 NE 6 10.00 Fair CLR 73.4 55.4 53% 30.06 0.0
05 17:55 E 6 10.00 Fair CLR 75.2 53.6 47% 78 30.05 0.0
05 17:35 Vrbl 6 10.00 Fair CLR 75.2 53.6 47% 78 30.05 0.0
05 17:15 Vrbl 5 10.00 Fair CLR 75.2 53.6 47% 78 30.04 0.0
05 16:55 E 5 10.00 Fair CLR 75.2 53.6 47% 78 30.05 0.0
05 16:15 Vrbl 3 10.00 Fair CLR 75.2 53.6 47% 78 30.05 0.0
05 15:56 NE 6 10.00 Fair CLR 75.2 53.6 47% 78 30.05 0.0
05 13:55 E 9 10.00 Fair CLR 73.4 57.2 73.2 53.6 57% 30.08 0.0
05 13:36 NE 10 10.00 Fair CLR 73.4 60.8 65% 30.08 0.0
05 13:15 NE 9 10.00 Fair CLR 71.6 59 65% 30.08 0.0
05 12:55 NE 8 10.00 Fair CLR 71.6 60.8 69% 30.08 0.0
05 12:35 NE 9 10.00 Fair CLR 71.6 60.8 69% 30.08 0.0
05 12:15 NE 10 10.00 Fair CLR 69.8 60.8 73% 30.09 0.0
05 11:55 NE 8 10.00 Fair CLR 69.8 60.8 73% 30.08 0.0
05 11:35 NE 9 10.00 Fair CLR 69.8 60.8 73% 30.08 0.0
05 11:16 NE 10 10.00 Fair CLR 69.8 60.8 73% 30.08 0.0
05 10:55 NE 10 10.00 Fair CLR 68 60.8 78% 30.07 0.0
05 10:35 NE 10 10.00 Fair CLR 68 60.8 78% 30.06 0.0
05 10:15 NE 10 10.00 Fair CLR 68 60.8 78% 30.06 0.0
05 09:55 E 9 10.00 Fair CLR 68 60.8 78% 30.06 0.0
05 09:15 E 9 10.00 Fair CLR 66.2 60.8 83% 30.06 0.0
05 08:56 NE 8 10.00 Fair CLR 66.2 60.8 83% 30.06 0.0
05 08:35 E 6 10.00 Fair CLR 64.4 60.8 88% 30.05 0.0
05 08:15 NE 3 10.00 Fair CLR 60.8 59 94% 30.05 0.0
05 07:55 NE 2 0.75 Fog/Mist VV005 55.4 53.6 57 50.7 94% 30.05 0.0
05 07:35 W 1 0.50 Fog VV005 53.6 51.8 94% 30.04 0.0
05 07:15 W 1 7.00 Fog/Mist CLR 53.6 51.8 94% 30.03 0.0
05 06:55 NW 2 7.00 Fog/Mist CLR 53.6 51.8 94% 30.04 0.0
05 06:36 NW 1 10.00 Fair CLR 51.8 51.8 100% 30.04 0.0
05 06:15 W 2 0.75 Fog/Mist VV005 51.8 51.8 100% 30.03 0.0
05 05:55 W 2 0.50 Fog VV005 51.8 51.8 100% 30.02 0.0
05 05:35 W 3 0.25 Fog VV002 53.6 51.8 94% 30.03 0.0
05 05:15 W 1 2.00 Fog/Mist CLR 53.6 51.8 94% 30.02 0.0
05 04:55 W 3 10.00 Fair CLR 53.6 53.6 100% 30.03 0.0
05 04:35 W 2 10.00 A Few Clouds FEW001 53.6 53.6 100% 30.02 0.0
05 04:16 NW 1 10.00 Partly Cloudy SCT001 53.6 53.6 100% 30.02 0.0
05 03:55 NW 2 6.00 Fog/Mist CLR 53.6 51.8 94% 30.02 0.0
05 03:35 SW 3 10.00 Fair CLR 55.4 53.6 94% 30.02 0.0
05 03:15 SW 2 10.00 Fair CLR 55.4 53.6 94% 30.02 0.0
05 02:55 W 2 5.00 Fog/Mist CLR 53.6 51.8 94% 30.01 0.0
05 02:35 SW 2 10.00 Fair CLR 55.4 55.4 100% 30.01 0.0
05 02:15 SW 1 6.00 Fair CLR 55.4 55.4 100% 30.02 0.0
05 01:56 W 2 10.00 Fair CLR 55.4 55.4 100% 30.02 0.0
05 01:35 NW 3 1.50 Fog/Mist SCT070 55.4 53.6 94% 30.02 0.0
05 01:15 SW 1 10.00 Mostly Cloudy BKN070 57.2 57.2 100% 30.02 0.0
05 00:55 NW 2 0.75 Fog/Mist BKN070 57.2 55.4 94% 30.02 0.0
05 00:35 S 2 10.00 Fair CLR 59 59 100% 30.02 0.0
05 00:15 SW 1 2.50 Fog/Mist CLR 60.8 59 94% 30.02 0.0
04 23:55 SE 1 0.25 Fog VV002 60.8 59 94% 30.02 0.0
04 23:36 NE 2 0.50 Fog VV005 57.2 57.2 100% 30.02 0.0
04 23:15 SE 2 1.25 Fog/Mist SCT075 62.6 60.8 94% 30.02 0.0
04 22:55 E 2 0.50 Fog OVC075 62.6 60.8 94% 30.02 0.0
04 22:15 NE 3 10.00 Mostly Cloudy SCT004 BKN075 62.6 60.8 94% 30.02 0.0
04 21:55 E 3 10.00 Overcast BKN004 OVC075 64.4 62.6 94% 30.02 0.0
04 21:35 E 6 10.00 Overcast BKN004 OVC065 64.4 62.6 94% 30.02 0.0
04 21:16 E 7 10.00 Overcast BKN004 OVC065 64.4 62.6 94% 30.01 0.0
04 20:55 NE 5 10.00 Overcast FEW004 OVC065 66.2 62.6 88% 30.01 0.0
04 20:35 E 5 10.00 Overcast BKN065 OVC085 66.2 62.6 88% 30 0.0
04 20:15 E 6 10.00 Overcast OVC065 66.2 62.6 88% 30 0.0
04 19:55 E 5 10.00 Mostly Cloudy BKN065 66.2 62.6 71.4 65.8 88% 30 0.0
04 19:35 E 6 10.00 Partly Cloudy SCT075 SCT080 66.2 62.6 88% 30 0.0
04 19:15 NE 7 10.00 Overcast OVC075 68 64.4 88% 30 0.0
04 18:56 NE 6 10.00 Overcast OVC075 68 64.4 88% 29.99 0.0
04 18:35 NE 6 10.00 Overcast FEW043 OVC060 68 62.6 83% 29.99 0.0
04 18:15 E 3 10.00 Overcast FEW043 OVC060 69.8 62.6 78% 29.99 0.0
04 17:55 E 6 10.00 Light Rain OVC060 69.8 62.6 78% 29.98 0.0
04 17:35 E 8 10.00 Overcast OVC060 69.8 62.6 78% 29.98 0.0
04 17:15 E 6 10.00 Overcast OVC060 69.8 60.8 73% 29.98 0.0
04 16:55 E 7 10.00 Overcast OVC060 69.8 60.8 73% 29.98 0.0
04 16:36 E 7 10.00 Overcast OVC060 71.6 60.8 69% 29.98 0.0
04 16:15 E 6 10.00 Overcast OVC060 71.6 62.6 73% 29.99 0.0
04 15:55 E 10 10.00 Overcast OVC060 71.6 62.6 73% 29.98 0.0
04 15:35 NE 10 10.00 Overcast OVC065 69.8 62.6 78% 29.99 0.0
04 15:15 NE 12 10.00 Overcast OVC070 69.8 62.6 78% 29.99 0.0
04 14:55 NE 12 10.00 Overcast OVC070 69.8 62.6 78% 29.99 0.0
04 14:35 E 14 10.00 Overcast FEW042 OVC060 69.8 62.6 78% 29.99 0.0
04 14:16 NE 14 10.00 Overcast SCT042 OVC060 68 62.6 83% 30 0.0
04 13:55 E 13 10.00 Overcast FEW042 OVC060 68 62.6 70.2 60.4 83% 30 0.0
04 13:35 NE 10 10.00 Overcast SCT050 OVC055 68 62.6 83% 30 0.0
04 13:15 E 9 10.00 Overcast OVC046 68 62.6 83% 30 0.0
04 12:55 NE 9 10.00 Mostly Cloudy BKN044 69.8 62.6 78% 30 0.0
04 12:35 E 12 10.00 A Few Clouds FEW050 69.8 62.6 78% 29.98 0.0
04 12:15 E 13 10.00 Mostly Cloudy BKN050 69.8 62.6 78% 29.99 0.0
04 11:56 NE 10 10.00 Overcast OVC050 68 62.6 83% 30 0.0
04 11:35 E 6 10.00 Mostly Cloudy BKN050 BKN055 69.8 62.6 78% 30.01 0.0
04 11:15 E 6 10.00 Mostly Cloudy BKN050 68 62.6 83% 30.01 0.0
04 10:55 S 3 10.00 Mostly Cloudy FEW006 BKN050 BKN065 66.2 62.6 88% 30.02 0.0
04 10:35 SE 5 10.00 Partly Cloudy SCT004 66.2 62.6 88% 30.02 0.0
04 10:15 E 7 10.00 Partly Cloudy SCT004 SCT070 66.2 62.6 88% 30.01 0.0
04 09:55 E 5 10.00 Partly Cloudy FEW006 SCT070 64.4 62.6 94% 30 0.0
04 09:36 E 2 10.00 Overcast FEW006 FEW060 OVC070 64.4 60.8 88% 30 0.0
04 09:15 SE 1 10.00 Overcast FEW008 BKN060 OVC080 62.6 60.8 94% 30 0.0
04 08:55 SE 2 10.00 Overcast FEW070 OVC090 62.6 60.8 94% 29.99 0.0
04 08:35 SE 2 7.00 Light Rain Fog/Mist FEW060 SCT070 OVC090 60.8 60.8 100% 29.99 0.0
04 08:15 SW 3 10.00 Overcast OVC090 60.8 59 94% 30 0.0
04 07:55 SE 2 10.00 Overcast OVC100 60.8 59 60.6 53.4 94% 29.98 0.0 0.05
04 07:35 E 3 6.00 Light Rain Fog/Mist BKN110 60.8 59 94% 29.98 0.0
04 07:16 E 3 4.00 Light Rain Fog/Mist FEW070 SCT090 BKN110 60.8 59 94% 29.99 0.0
04 06:55 Calm 6.00 Light Rain BKN060 BKN090 OVC110 60.8 59 94% 30 0.0 0.01
04 06:35 W 7 10.00 Light Rain OVC060 59 57.2 94% 30.02 0.0
04 06:15 SW 3 10.00 Overcast BKN060 OVC100 59 57.2 94% 30 0.0
04 05:55 W 3 10.00 Mostly Cloudy BKN100 57.2 55.4 94% 29.99 0.0
04 05:35 S 2 10.00 Fair CLR 57.2 55.4 94% 29.98 0.0
04 05:15 S 1 10.00 A Few Clouds FEW110 55.4 53.6 94% 29.97 0.0
04 04:56 NE 3 10.00 Mostly Cloudy BKN110 57.2 53.6 88% 29.97 0.0
04 04:35 E 2 10.00 A Few Clouds FEW110 55.4 53.6 94% 29.96 0.0
04 04:15 Calm 10.00 Fair CLR 55.4 53.6 94% 29.97 0.0
04 03:55 N 1 10.00 Partly Cloudy SCT100 55.4 53.6 94% 29.97 0.0
04 03:35 Calm 10.00 Mostly Cloudy BKN100 57.2 53.6 88% 29.97 0.0
04 03:15 SW 3 10.00 A Few Clouds FEW100 55.4 53.6 94% 29.97 0.0
04 02:55 Calm 10.00 Fair CLR 53.6 51.8 94% 29.97 0.0
04 02:36 Calm 10.00 Fair CLR 55.4 51.8 88% 29.98 0.0
04 02:15 SW 3 10.00 Fair CLR 55.4 51.8 88% 29.99 0.0
04 01:55 W 2 10.00 Fair CLR 55.4 53.6 69.4 55.2 94% 30 0.0
04 01:35 SW 1 10.00 Fair CLR 55.4 53.6 94% 30 0.0
04 01:15 SW 1 10.00 Fair CLR 55.4 53.6 94% 30 0.0
04 00:55 SW 2 10.00 Fair CLR 57.2 53.6 88% 30 0.0
04 00:35 Calm 10.00 Fair CLR 57.2 53.6 88% 30 0.0
04 00:16 W 2 10.00 Fair CLR 57.2 53.6 88% 30 0.0
03 23:55 SW 2 10.00 Fair CLR 57.2 55.4 94% 30 0.0
03 23:35 SW 2 10.00 Fair CLR 59 55.4 88% 30 0.0
03 23:15 SW 2 10.00 Fair CLR 57.2 55.4 94% 29.99 0.0
03 22:55 W 2 10.00 Fair CLR 57.2 55.4 94% 29.99 0.0
03 22:35 W 2 10.00 Fair CLR 59 55.4 88% 29.99 0.0
03 22:15 W 2 10.00 Fair CLR 60.8 57.2 88% 29.98 0.0
03 21:55 W 2 10.00 Fair CLR 60.8 57.2 88% 29.98 0.0
03 21:36 W 1 10.00 Fair CLR 60.8 57.2 88% 29.98 0.0
03 21:16 SW 1 10.00 Fair CLR 60.8 55.4 83% 29.97 0.0
03 20:55 SW 1 10.00 Fair CLR 62.6 57.2 83% 29.96 0.0
03 20:35 S 3 10.00 Fair CLR 64.4 57.2 78% 29.96 0.0
03 20:15 NE 1 10.00 Fair CLR 64.4 57.2 78% 29.95 0.0
03 19:55 S 3 10.00 Fair CLR 69.8 57.2 77.4 69.3 64% 29.95 0.0
03 19:35 SE 2 10.00 Fair CLR 69.8 57.2 64% 29.95 0.0
03 19:16 NE 5 10.00 Fair CLR 71.6 55.4 57% 29.94 0.0
03 18:55 E 5 10.00 Fair CLR 73.4 55.4 53% 29.93 0.0
03 18:35 NE 8 10.00 Fair CLR 75.2 53.6 47% 78 29.92 0.0
03 18:15 NE 6 10.00 Fair CLR 75.2 53.6 47% 78 29.92 0.0
03 17:55 NE 5 10.00 Fair CLR 77 53.6 44% 78 29.91 0.0
03 17:35 NE 7 10.00 Fair CLR 75.2 55.4 50% 78 29.92 0.0
03 17:15 NE 8 10.00 Fair CLR 77 55.4 47% 79 29.93 0.0
03 16:56 E 3 10.00 Fair CLR 77 55.4 47% 79 29.94 0.0
03 16:35 E 6 10.00 A Few Clouds FEW110 77 55.4 47% 79 29.94 0.0
03 16:15 NE 7 10.00 Partly Cloudy SCT100 75.2 57.2 54% 78 29.95 0.0
03 15:55 E 3 10.00 A Few Clouds FEW100 75.2 55.4 50% 78 29.96 0.0
03 15:35 Vrbl 3 10.00 Partly Cloudy SCT100 75.2 55.4 50% 78 29.97 0.0
03 15:15 Vrbl 2 10.00 Mostly Cloudy BKN095 75.2 55.4 50% 78 29.98 0.0
03 14:56 Vrbl 2 10.00 Overcast OVC095 75.2 55.4 50% 78 30 0.0
03 14:35 W 3 9.00 Mostly Cloudy BKN095 75.2 53.6 47% 78 29.99 0.0
03 14:15 Calm 10.00 Fair CLR 75.2 53.6 47% 78 29.99 0.0
03 13:55 Vrbl 1 10.00 Fair CLR 73.4 53.6 75 60.3 50% 29.99 0.0
03 13:35 Vrbl 2 10.00 Fair CLR 73.4 55.4 53% 29.98 0.0
03 13:15 E 5 10.00 Fair CLR 73.4 55.4 53% 29.97 0.0
03 12:55 Vrbl 6 10.00 Fair CLR 73.4 57.2 57% 29.96 0.0
03 12:36 N 5 10.00 Fair CLR 73.4 57.2 57% 29.96 0.0
03 12:15 Vrbl 1 10.00 Fair CLR 71.6 57.2 61% 29.97 0.0
03 11:55 Vrbl 2 10.00 Fair CLR 71.6 57.2 61% 29.97 0.0
03 11:35 N 3 10.00 Fair CLR 69.8 57.2 64% 29.97 0.0
03 11:15 Vrbl 1 10.00 Fair CLR 69.8 57.2 64% 29.98 0.0
03 10:55 NE 5 10.00 Fair CLR 69.8 59 69% 29.97 0.0
03 10:35 N 7 10.00 Fair CLR 69.8 57.2 64% 29.97 0.0
03 10:16 NE 5 10.00 Fair CLR 69.8 57.2 64% 29.97 0.0
03 09:55 N 2 10.00 Fair CLR 69.8 57.2 64% 29.97 0.0
03 09:35 Vrbl 1 10.00 Fair CLR 68 57.2 69% 29.97 0.0
03 09:15 N 3 10.00 Fair CLR 66.2 59 78% 29.97 0.0
03 08:55 SW 2 10.00 A Few Clouds FEW043 66.2 60.8 83% 29.98 0.0
03 08:35 NE 2 10.00 Partly Cloudy SCT060 62.6 60.8 94% 29.96 0.0
03 08:15 SW 2 10.00 Overcast OVC060 62.6 59 88% 29.97 0.0
03 07:56 SW 3 10.00 Mostly Cloudy BKN060 60.8 59 94% 29.97 0.0
03 07:35 S 2 10.00 Partly Cloudy SCT050 SCT065 59 59 100% 29.96 0.0
03 07:15 SW 5 10.00 Mostly Cloudy SCT055 BKN065 59 57.2 94% 29.96 0.0
03 06:55 SW 3 6.00 Fog/Mist OVC065 59 57.2 94% 29.96 0.0
03 06:35 N 1 10.00 Mostly Cloudy FEW048 BKN050 BKN070 57.2 57.2 100% 29.96 0.0
03 06:15 W 1 10.00 Mostly Cloudy SCT048 BKN050 BKN070 57.2 55.4 94% 29.95 0.0
03 05:55 W 1 10.00 Overcast SCT048 BKN050 OVC070 59 57.2 94% 29.96 0.0
03 05:36 SW 1 10.00 Mostly Cloudy BKN050 BKN070 59 57.2 94% 29.96 0.0
03 05:15 Calm 10.00 Mostly Cloudy FEW050 BKN070 60.8 59 94% 29.95 0.0
03 04:55 W 2 10.00 Overcast BKN050 OVC065 60.8 59 94% 29.96 0.0
03 04:35 SW 1 10.00 Overcast BKN048 OVC065 59 57.2 94% 29.95 0.0
03 04:15 SW 1 10.00 Overcast FEW046 SCT055 OVC065 59 57.2 94% 29.95 0.0
03 03:55 SW 2 10.00 Mostly Cloudy SCT046 BKN055 59 57.2 94% 29.95 0.0
03 03:16 Vrbl 1 10.00 Mostly Cloudy BKN005 BKN045 59 57.2 94% 29.95 0.0
03 02:55 Calm 10.00 Partly Cloudy FEW007 SCT045 59 57.2 94% 29.94 0.0
03 02:35 W 1 10.00 Mostly Cloudy BKN045 59 57.2 94% 29.93 0.0
03 02:15 W 1 10.00 Overcast OVC047 59 57.2 94% 29.93 0.0
03 01:55 SW 3 10.00 Partly Cloudy SCT047 60.8 59 72.1 58.3 94% 29.93 0.0
03 01:35 SW 3 10.00 Fair CLR 59 57.2 94% 29.93 0.0
03 01:15 SW 5 10.00 Fair CLR 60.8 59 94% 29.93 0.0
03 00:56 SW 5 10.00 Fair CLR 60.8 57.2 88% 29.92 0.0
03 00:35 W 1 10.00 Fair CLR 59 57.2 94% 29.92 0.0
03 00:15 W 2 10.00 Fair CLR 60.8 59 94% 29.92 0.0
02 23:55 Calm 7.00 Fair CLR 60.8 59 94% 29.92 0.0
02 23:35 NE 1 1.75 Fog/Mist CLR 60.8 59 94% 29.92 0.0
02 23:15 SW 1 10.00 Fair CLR 60.8 59 94% 29.92 0.0
02 22:55 SW 2 10.00 Fair CLR 62.6 60.8 94% 29.92 0.0
02 22:36 SW 1 10.00 Fair CLR 64.4 62.6 94% 29.92 0.0
02 22:15 W 1 10.00 Fair CLR 64.4 60.8 88% 29.92 0.0
02 21:55 SW 2 10.00 Fair CLR 64.4 60.8 88% 29.91 0.0
02 21:35 NW 5 10.00 Fair CLR 66.2 62.6 88% 29.91 0.0
02 21:15 N 7 10.00 Fair CLR 68 60.8 78% 29.91 0.0
02 20:55 NE 3 10.00 Partly Cloudy SCT110 66.2 60.8 83% 29.9 0.0
02 20:35 SW 5 10.00 Overcast OVC110 69.8 60.8 73% 29.89 0.0
02 20:16 W 3 10.00 Overcast OVC110 71.6 60.8 69% 29.89 0.0
02 19:55 W 5 10.00 Overcast OVC110 71.6 60.8 82.2 72 69% 29.89 0.0
02 19:35 W 5 10.00 Mostly Cloudy BKN110 73.4 60.8 65% 29.89 0.0
Date Time (edt) Wind (mph) Vis. (mi.) Weather Sky Cond. Air Dwpt Max. Min. Relative Humidity Wind Chill (°F) Heat Index (°F) altimeter (in) sea level (mb) 1 hr 3 hr 6 hr
6 hour
Temperature (ºF) Pressure Precipitation (in)